createdAt,value
2022-10-03T00:00:36.426Z,1.67
2022-10-03T00:02:27.001Z,2.33
2022-10-03T00:04:16.116Z,1.90
2022-10-03T00:06:09.664Z,2.05
2022-10-03T00:08:00.917Z,1.67
2022-10-03T00:10:00.036Z,0.98
2022-10-03T00:11:47.470Z,1.60
2022-10-03T00:13:29.647Z,1.48
2022-10-03T00:15:07.999Z,1.30
2022-10-03T00:16:50.155Z,1.40
2022-10-03T00:18:37.339Z,1.50
2022-10-03T00:20:34.217Z,1.35
2022-10-03T00:22:26.415Z,1.17
2022-10-03T00:24:12.246Z,1.35
2022-10-03T00:25:55.941Z,1.40
2022-10-03T00:27:38.640Z,0.93
2022-10-03T00:29:37.919Z,0.90
2022-10-03T00:31:16.696Z,1.00
2022-10-03T00:33:05.574Z,1.10
2022-10-03T00:34:55.670Z,1.23
2022-10-03T00:36:42.614Z,1.20
2022-10-03T00:38:39.304Z,1.30
2022-10-03T00:40:46.611Z,1.13
2022-10-03T00:42:54.917Z,0.90
2022-10-03T00:44:58.582Z,1.02
2022-10-03T00:47:00.015Z,0.82
2022-10-03T00:49:01.848Z,0.90
2022-10-03T00:51:09.723Z,0.98
2022-10-03T00:53:04.424Z,1.00
2022-10-03T00:54:54.423Z,0.95
2022-10-03T00:56:51.005Z,1.10
2022-10-03T00:58:39.295Z,0.90
2022-10-03T01:00:22.831Z,1.00
2022-10-03T01:01:57.379Z,1.50
2022-10-03T01:03:45.204Z,1.38
2022-10-03T01:05:31.739Z,1.05
2022-10-03T01:07:17.915Z,0.93
2022-10-03T01:09:32.162Z,1.13
2022-10-03T01:11:16.390Z,1.15
2022-10-03T01:13:05.256Z,1.23
2022-10-03T01:15:01.139Z,1.02
2022-10-03T01:16:45.098Z,1.20
2022-10-03T01:18:29.457Z,1.15
2022-10-03T01:20:24.209Z,0.90
2022-10-03T01:22:09.822Z,0.95
2022-10-03T01:24:22.704Z,1.00
2022-10-03T01:26:12.942Z,0.85
2022-10-03T01:28:11.807Z,1.15
2022-10-03T01:30:10.546Z,1.15
2022-10-03T01:31:50.488Z,0.90
2022-10-03T01:33:29.165Z,1.67
2022-10-03T01:35:12.968Z,1.17
2022-10-03T01:36:56.200Z,1.00
2022-10-03T01:38:35.906Z,0.90
2022-10-03T01:40:21.308Z,1.48
2022-10-03T01:42:00.846Z,0.80
2022-10-03T01:43:38.387Z,0.80
2022-10-03T01:45:26.363Z,0.98
2022-10-03T01:47:11.143Z,0.98
2022-10-03T01:48:52.477Z,0.88
2022-10-03T01:50:32.747Z,0.85
2022-10-03T01:52:11.832Z,0.98
2022-10-03T01:54:04.374Z,0.93
2022-10-03T01:56:00.365Z,1.00
2022-10-03T01:57:39.636Z,0.82
2022-10-03T01:59:18.938Z,1.55
2022-10-03T02:01:00.443Z,0.80
2022-10-03T02:02:41.602Z,0.90
2022-10-03T02:04:22.746Z,1.35
2022-10-03T02:06:03.359Z,1.25
2022-10-03T02:07:48.398Z,1.23
2022-10-03T02:09:31.274Z,1.55
2022-10-03T02:11:08.489Z,1.83
2022-10-03T02:12:49.489Z,1.83
2022-10-03T02:14:29.826Z,2.00
2022-10-03T02:16:10.874Z,2.20
2022-10-03T02:17:52.545Z,2.30
2022-10-03T02:19:29.810Z,1.70
2022-10-03T02:21:11.416Z,1.70
2022-10-03T02:22:47.297Z,1.42
2022-10-03T02:24:39.782Z,1.02
2022-10-03T02:26:37.605Z,1.52
2022-10-03T02:28:36.239Z,1.30
2022-10-03T02:30:21.247Z,1.27
2022-10-03T02:32:27.456Z,1.13
2022-10-03T02:34:33.137Z,1.30
2022-10-03T02:36:32.179Z,1.55
2022-10-03T02:38:28.115Z,1.10
2022-10-03T02:40:32.995Z,1.38
2022-10-03T02:42:44.469Z,1.45
2022-10-03T02:44:47.467Z,1.42
2022-10-03T02:46:58.676Z,1.38
2022-10-03T02:49:05.202Z,1.38
2022-10-03T02:51:38.234Z,1.67
2022-10-03T02:53:44.766Z,1.27
2022-10-03T02:55:43.497Z,1.17
2022-10-03T02:57:57.323Z,1.30
2022-10-03T02:59:59.970Z,1.60
2022-10-03T03:01:53.807Z,1.65
2022-10-03T03:03:48.503Z,1.80
2022-10-03T03:05:46.480Z,6.53
2022-10-03T03:07:37.260Z,7.13
2022-10-03T03:09:48.399Z,16.90
2022-10-03T03:12:00.090Z,4.78
2022-10-03T03:13:59.430Z,1.80
2022-10-03T03:16:16.110Z,1.75
2022-10-03T03:17:57.622Z,1.75
2022-10-03T03:19:51.306Z,1.30
2022-10-03T03:21:35.862Z,2.25
2022-10-03T03:23:35.305Z,1.73
2022-10-03T03:25:50.288Z,1.85
2022-10-03T03:27:41.856Z,1.70
2022-10-03T03:29:27.078Z,1.65
2022-10-03T03:31:11.143Z,1.40
2022-10-03T03:32:58.052Z,1.60
2022-10-03T03:34:36.041Z,1.90
2022-10-03T03:36:19.603Z,1.70
2022-10-03T03:38:03.782Z,1.60
2022-10-03T03:39:55.680Z,1.58
2022-10-03T03:41:53.332Z,2.70
2022-10-03T03:43:48.739Z,1.90
2022-10-03T03:45:45.836Z,2.17
2022-10-03T03:47:35.442Z,1.90
2022-10-03T03:49:44.383Z,1.80
2022-10-03T03:51:28.344Z,1.55
2022-10-03T03:53:31.248Z,2.10
2022-10-03T03:55:18.353Z,12.38
2022-10-03T03:57:14.360Z,2.60
2022-10-03T03:58:56.155Z,2.08
2022-10-03T04:00:43.332Z,2.17
2022-10-03T04:02:31.893Z,1.90
2022-10-03T04:04:21.434Z,1.83
2022-10-03T04:06:17.596Z,2.05
2022-10-03T04:08:12.193Z,1.90
2022-10-03T04:10:08.381Z,2.70
2022-10-03T04:11:54.901Z,2.88
2022-10-03T04:13:49.093Z,2.50
2022-10-03T04:15:49.392Z,3.60
2022-10-03T04:18:00.153Z,2.75
2022-10-03T04:19:44.866Z,1.95
2022-10-03T04:21:36.393Z,1.85
2022-10-03T04:23:23.186Z,2.00
2022-10-03T04:25:27.599Z,2.13
2022-10-03T04:27:22.308Z,1.92
2022-10-03T04:29:25.291Z,2.92
2022-10-03T04:31:09.038Z,2.13
2022-10-03T04:33:14.023Z,2.47
2022-10-03T04:35:00.388Z,2.05
2022-10-03T04:37:08.440Z,2.53
2022-10-03T04:38:50.544Z,12.95
2022-10-03T04:40:41.763Z,11.75
2022-10-03T04:42:27.225Z,15.65
2022-10-03T04:44:08.865Z,10.02
2022-10-03T04:45:56.358Z,7.65
2022-10-03T04:47:34.487Z,8.30
2022-10-03T04:49:15.571Z,4.25
2022-10-03T04:51:02.261Z,3.50
2022-10-03T04:52:43.090Z,3.85
2022-10-03T04:54:28.564Z,4.13
2022-10-03T04:56:17.776Z,3.70
2022-10-03T04:58:01.452Z,3.55
2022-10-03T04:59:47.619Z,4.10
2022-10-03T05:01:26.811Z,4.65
2022-10-03T05:03:08.150Z,4.43
2022-10-03T05:04:55.825Z,3.08
2022-10-03T05:06:48.687Z,3.53
2022-10-03T05:08:36.489Z,3.78
2022-10-03T05:10:26.576Z,3.25
2022-10-03T05:12:15.526Z,4.57
2022-10-03T05:14:01.995Z,3.08
2022-10-03T05:15:44.256Z,2.47
2022-10-03T05:17:24.318Z,2.58
2022-10-03T05:19:10.712Z,1.95
2022-10-03T05:20:54.358Z,2.63
2022-10-03T05:22:40.563Z,2.58
2022-10-03T05:24:21.037Z,2.88
2022-10-03T05:26:32.347Z,2.80
2022-10-03T05:28:08.079Z,2.15
2022-10-03T05:29:47.499Z,2.40
2022-10-03T05:31:36.482Z,2.03
2022-10-03T05:33:24.663Z,2.70
2022-10-03T05:35:15.207Z,2.95
2022-10-03T05:37:29.808Z,2.28
2022-10-03T05:39:27.598Z,2.33
2022-10-03T05:41:09.792Z,2.00
2022-10-03T05:43:02.526Z,2.20
2022-10-03T05:44:44.173Z,2.20
2022-10-03T05:46:31.500Z,1.95
2022-10-03T05:48:30.024Z,1.80
2022-10-03T05:50:30.915Z,1.98
2022-10-03T05:52:43.754Z,2.60
2022-10-03T05:54:44.031Z,2.05
2022-10-03T05:56:30.255Z,2.42
2022-10-03T05:58:34.946Z,1.95
2022-10-03T06:00:18.637Z,2.03
2022-10-03T06:02:42.405Z,2.17
2022-10-03T06:04:57.135Z,2.28
2022-10-03T06:06:44.609Z,1.80
2022-10-03T06:08:45.165Z,1.67
2022-10-03T06:10:44.413Z,2.10
2022-10-03T06:12:24.024Z,1.42
2022-10-03T06:14:18.978Z,2.03
2022-10-03T06:15:59.809Z,2.10
2022-10-03T06:17:56.480Z,1.77
2022-10-03T06:19:45.610Z,1.42
2022-10-03T06:21:45.009Z,1.65
2022-10-03T06:23:51.902Z,1.67
2022-10-03T06:26:13.687Z,2.13
2022-10-03T06:28:23.977Z,2.40
2022-10-03T06:30:24.183Z,2.17
2022-10-03T06:32:25.803Z,2.05
2022-10-03T06:34:12.819Z,1.65
2022-10-03T06:36:19.328Z,1.38
2022-10-03T06:38:27.881Z,1.85
2022-10-03T06:40:40.226Z,2.05
2022-10-03T06:42:38.758Z,1.80
2022-10-03T06:44:22.138Z,2.30
2022-10-03T06:46:27.943Z,1.90
2022-10-03T06:48:37.313Z,5.13
2022-10-03T06:50:40.629Z,5.40
2022-10-03T06:52:30.360Z,3.00
2022-10-03T06:54:40.275Z,3.83
2022-10-03T06:56:50.050Z,5.50
2022-10-03T06:59:08.638Z,2.78
2022-10-03T07:00:56.314Z,3.78
2022-10-03T07:02:59.832Z,4.95
2022-10-03T07:05:05.221Z,5.63
2022-10-03T07:07:00.090Z,5.30
2022-10-03T07:09:01.945Z,5.10
2022-10-03T07:10:48.660Z,4.63
2022-10-03T07:12:47.547Z,4.45
2022-10-03T07:15:00.139Z,4.57
2022-10-03T07:17:08.922Z,3.65
2022-10-03T07:19:26.404Z,3.75
2022-10-03T07:21:25.321Z,3.58
2022-10-03T07:23:25.738Z,2.97
2022-10-03T07:25:43.949Z,3.03
2022-10-03T07:27:37.914Z,3.08
2022-10-03T07:29:24.952Z,2.70
2022-10-03T07:31:10.207Z,3.17
2022-10-03T07:33:39.032Z,3.90
2022-10-03T07:35:58.341Z,3.50
2022-10-03T07:38:28.163Z,3.08
2022-10-03T07:40:15.222Z,3.63
2022-10-03T07:42:32.326Z,2.80
2022-10-03T07:44:50.234Z,3.00
2022-10-03T07:46:51.883Z,2.80
2022-10-03T07:48:51.609Z,3.17
2022-10-03T07:51:01.406Z,3.60
2022-10-03T07:52:57.749Z,4.22
2022-10-03T07:54:50.458Z,2.78
2022-10-03T07:56:44.962Z,4.82
2022-10-03T07:58:36.066Z,5.38
2022-10-03T08:00:22.886Z,5.85
2022-10-03T08:02:10.035Z,9.30
2022-10-03T08:04:16.965Z,24.13
2022-10-03T08:06:15.872Z,13.77
2022-10-03T08:08:15.753Z,12.45
2022-10-03T08:10:24.497Z,9.30
2022-10-03T08:12:48.075Z,5.90
2022-10-03T08:14:35.561Z,5.45
2022-10-03T08:16:25.245Z,5.53
2022-10-03T08:18:27.795Z,5.82
2022-10-03T08:20:26.481Z,5.50
2022-10-03T08:22:10.569Z,3.92
2022-10-03T08:24:24.546Z,11.95
2022-10-03T08:26:08.410Z,5.43
2022-10-03T08:28:11.512Z,4.03
2022-10-03T08:30:33.613Z,4.50
2022-10-03T08:32:39.274Z,3.70
2022-10-03T08:34:32.828Z,4.97
2022-10-03T08:36:34.042Z,6.30
2022-10-03T08:38:33.880Z,4.90
2022-10-03T08:40:56.624Z,6.65
2022-10-03T08:43:07.566Z,6.00
2022-10-03T08:45:06.757Z,7.15
2022-10-03T08:47:07.890Z,5.32
2022-10-03T08:49:06.995Z,5.70
2022-10-03T08:51:05.835Z,5.63
2022-10-03T08:53:01.117Z,6.30
2022-10-03T08:54:48.917Z,5.45
2022-10-03T08:56:29.091Z,4.30
2022-10-03T08:58:30.668Z,4.47
2022-10-03T09:00:17.886Z,3.53
2022-10-03T09:02:31.967Z,3.05
2022-10-03T09:04:38.548Z,2.53
2022-10-03T09:07:17.585Z,2.33
2022-10-03T09:09:17.674Z,1.98
2022-10-03T09:11:29.120Z,1.75
2022-10-03T09:13:27.762Z,1.92
2022-10-03T09:15:15.618Z,1.63
2022-10-03T09:17:01.653Z,2.30
2022-10-03T09:18:52.382Z,2.53
2022-10-03T09:21:17.973Z,2.50
2022-10-03T09:23:31.286Z,2.65
2022-10-03T09:25:35.164Z,2.97
2022-10-03T09:27:42.553Z,2.63
2022-10-03T09:29:43.414Z,2.60
2022-10-03T09:31:40.920Z,2.28
2022-10-03T09:33:55.443Z,2.50
2022-10-03T09:35:55.585Z,2.90
2022-10-03T09:37:59.385Z,2.38
2022-10-03T09:40:11.198Z,3.15
2022-10-03T09:42:22.244Z,2.85
2022-10-03T09:44:34.506Z,3.90
2022-10-03T09:47:10.477Z,2.45
2022-10-03T09:49:21.883Z,2.35
2022-10-03T09:51:31.961Z,2.70
2022-10-03T09:53:32.548Z,2.17
2022-10-03T09:55:47.234Z,3.78
2022-10-03T09:57:55.506Z,2.85
2022-10-03T09:59:42.161Z,4.18
2022-10-03T10:01:27.250Z,3.00
2022-10-03T10:03:21.945Z,3.72
2022-10-03T10:05:26.792Z,3.72
2022-10-03T10:07:41.657Z,3.78
2022-10-03T10:09:47.780Z,3.05
2022-10-03T10:11:40.145Z,4.03
2022-10-03T10:14:03.195Z,4.53
2022-10-03T10:16:20.561Z,4.63
2022-10-03T10:18:39.284Z,3.47
2022-10-03T10:20:28.573Z,1.50
2022-10-03T10:22:19.573Z,1.58
2022-10-03T10:24:04.583Z,1.70
2022-10-03T10:26:05.102Z,2.58
2022-10-03T10:28:08.204Z,2.00
2022-10-03T10:30:11.905Z,2.25
2022-10-03T10:32:21.538Z,1.00
2022-10-03T10:34:35.708Z,1.20
2022-10-03T10:36:44.538Z,0.63
2022-10-03T10:38:41.117Z,0.60
2022-10-03T10:40:55.022Z,0.55
2022-10-03T10:43:06.902Z,1.00
2022-10-03T10:45:24.387Z,0.40
2022-10-03T10:47:14.554Z,0.73
2022-10-03T10:49:39.703Z,0.60
2022-10-03T10:51:42.828Z,0.60
2022-10-03T10:54:11.870Z,0.47
2022-10-03T10:56:19.103Z,0.88
2022-10-03T10:58:27.917Z,0.93
2022-10-03T11:00:26.470Z,0.95
2022-10-03T11:02:29.486Z,0.93
2022-10-03T11:04:40.577Z,1.27
2022-10-03T11:06:54.390Z,1.00
2022-10-03T11:09:03.118Z,0.80
2022-10-03T11:10:44.956Z,0.60
2022-10-03T11:13:02.067Z,0.68
2022-10-03T11:15:04.395Z,0.90
2022-10-03T11:17:17.657Z,0.68
2022-10-03T11:19:23.896Z,1.00
2022-10-03T11:21:32.303Z,0.70
2022-10-03T11:24:00.584Z,0.35
2022-10-03T11:26:10.492Z,0.50
2022-10-03T11:28:19.078Z,0.30
2022-10-03T11:30:28.624Z,0.50
2022-10-03T11:32:30.698Z,0.50
2022-10-03T11:34:44.108Z,0.85
2022-10-03T11:36:49.251Z,1.08
2022-10-03T11:38:27.233Z,1.40
2022-10-03T11:40:15.274Z,0.70
2022-10-03T11:42:02.203Z,0.57
2022-10-03T11:44:08.249Z,0.80
2022-10-03T11:45:48.161Z,0.60
2022-10-03T11:47:49.295Z,0.50
2022-10-03T11:49:50.707Z,0.60
2022-10-03T11:51:38.570Z,0.45
2022-10-03T11:53:43.370Z,0.60
2022-10-03T11:55:31.646Z,0.50
2022-10-03T11:57:11.143Z,0.70
2022-10-03T11:58:56.558Z,0.40
2022-10-03T12:00:34.481Z,0.60
2022-10-03T12:02:18.420Z,0.50
2022-10-03T12:04:00.709Z,0.65
2022-10-03T12:05:52.804Z,0.43
2022-10-03T12:08:01.050Z,0.60
2022-10-03T12:09:45.914Z,0.52
2022-10-03T12:11:26.681Z,0.50
2022-10-03T12:13:09.778Z,0.30
2022-10-03T12:14:46.867Z,0.60
2022-10-03T12:16:27.869Z,0.40
2022-10-03T12:18:09.175Z,0.60
2022-10-03T12:19:55.244Z,0.47
2022-10-03T12:21:41.433Z,0.50
2022-10-03T12:23:29.221Z,0.52
2022-10-03T12:25:16.822Z,0.77
2022-10-03T12:27:00.049Z,0.77
2022-10-03T12:28:39.972Z,0.90
2022-10-03T12:30:17.644Z,0.80
2022-10-03T12:32:03.653Z,0.90
2022-10-03T12:33:53.037Z,0.90
2022-10-03T12:35:41.424Z,1.00
2022-10-03T12:37:36.968Z,1.13
2022-10-03T12:39:26.010Z,1.30
2022-10-03T12:41:11.907Z,1.50
2022-10-03T12:42:51.006Z,1.10
2022-10-03T12:44:37.249Z,1.50
2022-10-03T12:46:17.486Z,1.20
2022-10-03T12:48:02.744Z,1.20
2022-10-03T12:49:51.392Z,1.60
2022-10-03T12:51:58.230Z,1.13
2022-10-03T12:53:38.973Z,1.30
2022-10-03T12:55:26.889Z,1.55
2022-10-03T12:57:16.188Z,1.30
2022-10-03T12:59:24.764Z,1.00
2022-10-03T13:01:10.270Z,1.35
2022-10-03T13:02:48.329Z,1.40
2022-10-03T13:04:35.476Z,1.40
2022-10-03T13:07:02.483Z,1.20
2022-10-03T13:08:45.729Z,1.65
2022-10-03T13:10:29.566Z,1.40
2022-10-03T13:12:11.176Z,1.50
2022-10-03T13:14:07.587Z,1.00
2022-10-03T13:15:49.201Z,1.00
2022-10-03T13:17:29.363Z,1.98
2022-10-03T13:19:06.804Z,1.73
2022-10-03T13:20:43.968Z,1.40
2022-10-03T13:22:33.208Z,1.83
2022-10-03T13:24:10.852Z,1.30
2022-10-03T13:25:47.111Z,1.10
2022-10-03T13:27:33.467Z,1.38
2022-10-03T13:29:23.881Z,1.23
2022-10-03T13:31:03.577Z,1.17
2022-10-03T13:32:42.532Z,1.27
2022-10-03T13:34:20.608Z,1.20
2022-10-03T13:36:02.770Z,1.38
2022-10-03T13:37:50.510Z,1.55
2022-10-03T13:39:27.052Z,2.67
2022-10-03T13:41:10.974Z,1.60
2022-10-03T13:42:53.867Z,1.50
2022-10-03T13:44:37.687Z,1.40
2022-10-03T13:46:18.537Z,1.38
2022-10-03T13:47:55.986Z,1.63
2022-10-03T13:49:34.603Z,1.40
2022-10-03T13:51:22.186Z,1.40
2022-10-03T13:53:01.418Z,1.50
2022-10-03T13:55:03.803Z,2.03
2022-10-03T13:56:46.613Z,1.80
2022-10-03T13:58:33.046Z,1.10
2022-10-03T14:00:12.238Z,1.00
2022-10-03T14:01:57.101Z,1.70
2022-10-03T14:03:45.736Z,1.40
2022-10-03T14:05:52.517Z,1.30
2022-10-03T14:07:36.908Z,1.10
2022-10-03T14:09:28.943Z,1.20
2022-10-03T14:11:23.559Z,1.27
2022-10-03T14:13:16.987Z,0.63
2022-10-03T14:15:07.347Z,1.95
2022-10-03T14:16:44.882Z,0.70
2022-10-03T14:18:38.488Z,4.03
2022-10-03T14:20:24.596Z,1.60
2022-10-03T14:22:14.047Z,0.85
2022-10-03T14:23:52.491Z,1.10
2022-10-03T14:25:29.882Z,0.82
2022-10-03T14:27:11.580Z,1.10
2022-10-03T14:28:51.157Z,0.65
2022-10-03T14:30:26.464Z,0.80
2022-10-03T14:32:08.941Z,0.88
2022-10-03T14:33:59.941Z,1.08
2022-10-03T14:35:39.268Z,1.20
2022-10-03T14:37:25.945Z,1.10
2022-10-03T14:39:22.159Z,0.82
2022-10-03T14:41:05.459Z,0.88
2022-10-03T14:42:53.951Z,0.95
2022-10-03T14:44:37.266Z,0.90
2022-10-03T14:46:11.875Z,0.93
2022-10-03T14:47:50.713Z,0.80
2022-10-03T14:51:27.542Z,1.00
2022-10-03T14:53:06.216Z,0.88
2022-10-03T14:54:43.028Z,1.50
2022-10-03T14:56:20.925Z,0.93
2022-10-03T14:58:10.224Z,1.60
2022-10-03T14:59:52.091Z,1.00
2022-10-03T15:01:28.701Z,1.52
2022-10-03T15:03:20.859Z,1.67
2022-10-03T15:04:59.593Z,1.35
2022-10-03T15:06:54.108Z,1.15
2022-10-03T15:08:35.728Z,0.82
2022-10-03T15:10:14.352Z,0.98
2022-10-03T15:11:52.661Z,1.60
2022-10-03T15:13:29.117Z,0.98
2022-10-03T15:15:05.999Z,1.02
2022-10-03T15:16:46.184Z,1.00
2022-10-03T15:18:23.220Z,1.00
2022-10-03T15:20:00.425Z,1.85
2022-10-03T15:21:34.217Z,0.70
2022-10-03T15:23:11.345Z,1.30
2022-10-03T15:24:45.001Z,0.90
2022-10-03T15:26:24.927Z,1.50
2022-10-03T15:28:02.990Z,1.00
2022-10-03T15:29:39.657Z,1.05
2022-10-03T15:31:18.133Z,1.42
2022-10-03T15:32:53.561Z,1.67
2022-10-03T15:34:32.465Z,1.13
2022-10-03T15:36:14.775Z,1.00
2022-10-03T15:37:48.732Z,1.20
2022-10-03T15:39:27.886Z,1.65
2022-10-03T15:41:10.688Z,1.50
2022-10-03T15:42:52.731Z,1.60
2022-10-03T15:44:33.922Z,1.38
2022-10-03T15:46:15.730Z,1.58
2022-10-03T15:47:51.207Z,1.40
2022-10-03T15:49:27.908Z,1.70
2022-10-03T15:51:02.924Z,1.55
2022-10-03T15:52:41.799Z,2.10
2022-10-03T15:54:21.970Z,2.00
2022-10-03T15:56:01.795Z,2.28
2022-10-03T15:57:41.800Z,1.70
2022-10-03T15:59:23.249Z,1.83
2022-10-03T16:01:06.836Z,1.52
2022-10-03T16:02:50.001Z,1.35
2022-10-03T16:04:26.343Z,2.03
2022-10-03T16:06:08.975Z,4.13
2022-10-03T16:07:53.434Z,1.92
2022-10-03T16:09:31.393Z,1.58
2022-10-03T16:11:10.258Z,2.78
2022-10-03T16:12:56.167Z,1.40
2022-10-03T16:14:36.055Z,1.27
2022-10-03T16:16:21.185Z,1.08
2022-10-03T16:17:58.553Z,1.00
2022-10-03T16:19:39.531Z,1.13
2022-10-03T16:21:16.378Z,0.98
2022-10-03T16:22:54.302Z,1.40
2022-10-03T16:24:35.269Z,1.52
2022-10-03T16:26:15.030Z,1.17
2022-10-03T16:27:56.229Z,1.45
2022-10-03T16:29:33.819Z,1.20
2022-10-03T16:31:14.232Z,2.20
2022-10-03T16:32:54.276Z,2.05
2022-10-03T16:34:31.276Z,15.63
2022-10-03T16:36:07.027Z,23.90
2022-10-03T16:37:42.499Z,2.70
2022-10-03T16:39:21.797Z,2.80
2022-10-03T16:40:58.995Z,1.60
2022-10-03T16:42:42.467Z,1.80
2022-10-03T16:44:21.866Z,5.45
2022-10-03T16:45:56.678Z,3.15
2022-10-03T16:47:35.796Z,3.63
2022-10-03T16:49:30.366Z,2.78
2022-10-03T16:51:04.807Z,3.00
2022-10-03T16:52:40.569Z,2.75
2022-10-03T16:54:16.007Z,2.63
2022-10-03T16:55:59.242Z,4.30
2022-10-03T16:57:43.340Z,2.80
2022-10-03T16:59:20.628Z,2.15
2022-10-03T17:01:25.389Z,2.30
2022-10-03T17:02:55.887Z,2.22
2022-10-03T17:04:34.130Z,2.03
2022-10-03T17:06:15.973Z,1.95
2022-10-03T17:07:52.589Z,1.88
2022-10-03T17:09:34.763Z,2.00
2022-10-03T17:11:10.167Z,1.90
2022-10-03T17:12:46.595Z,3.15
2022-10-03T17:14:22.319Z,2.20
2022-10-03T17:16:03.397Z,1.85
2022-10-03T17:17:46.755Z,1.70
2022-10-03T17:19:28.293Z,1.75
2022-10-03T17:21:10.816Z,2.03
2022-10-03T17:22:48.192Z,1.08
2022-10-03T17:24:31.825Z,0.85
2022-10-03T17:26:11.494Z,0.80
2022-10-03T17:27:48.196Z,1.00
2022-10-03T17:29:25.298Z,1.10
2022-10-03T17:31:04.204Z,1.20
2022-10-03T17:32:40.828Z,1.20
2022-10-03T17:34:18.975Z,1.33
2022-10-03T17:36:04.933Z,1.13
2022-10-03T17:38:19.557Z,1.25
2022-10-03T17:39:59.384Z,1.17
2022-10-03T17:41:41.391Z,0.98
2022-10-03T17:43:23.431Z,0.82
2022-10-03T17:45:06.258Z,1.20
2022-10-03T17:46:43.536Z,3.17
2022-10-03T17:48:21.999Z,10.32
2022-10-03T17:50:02.933Z,1.63
2022-10-03T17:51:42.059Z,1.25
2022-10-03T17:53:21.635Z,1.65
2022-10-03T17:54:58.650Z,1.02
2022-10-03T17:56:36.174Z,1.52
2022-10-03T17:58:17.237Z,1.50
2022-10-03T17:59:58.753Z,1.95
2022-10-03T18:01:38.641Z,1.60
2022-10-03T18:03:17.709Z,1.70
2022-10-03T18:04:58.890Z,2.20
2022-10-03T18:06:44.801Z,0.80
2022-10-03T18:08:23.794Z,0.82
2022-10-03T18:09:57.635Z,1.10
2022-10-03T18:11:34.942Z,1.00
2022-10-03T18:13:18.204Z,1.20
2022-10-03T18:15:22.743Z,1.33
2022-10-03T18:17:04.893Z,1.00
2022-10-03T18:18:57.914Z,1.17
2022-10-03T18:20:45.628Z,0.80
2022-10-03T18:22:23.617Z,0.77
2022-10-03T18:24:16.854Z,0.85
2022-10-03T18:26:20.738Z,0.70
2022-10-03T18:28:13.740Z,0.73
2022-10-03T18:29:52.946Z,0.80
2022-10-03T18:31:27.678Z,1.13
2022-10-03T18:33:01.535Z,0.90
2022-10-03T18:34:39.378Z,0.70
2022-10-03T18:36:20.250Z,0.68
2022-10-03T18:38:04.337Z,0.80
2022-10-03T18:39:40.007Z,0.70
2022-10-03T18:41:17.193Z,1.00
2022-10-03T18:42:51.005Z,0.98
2022-10-03T18:44:28.364Z,0.70
2022-10-03T18:46:30.009Z,1.05
2022-10-03T18:48:11.987Z,0.70
2022-10-03T18:49:54.044Z,1.30
2022-10-03T18:51:33.588Z,1.60
2022-10-03T18:53:19.469Z,0.95
2022-10-03T18:54:59.470Z,1.17
2022-10-03T18:56:33.626Z,1.20
2022-10-03T18:58:18.505Z,0.85
2022-10-03T19:00:01.789Z,0.95
2022-10-03T19:01:45.345Z,1.25
2022-10-03T19:03:23.771Z,1.50
2022-10-03T19:05:03.505Z,1.30
2022-10-03T19:06:39.276Z,1.50
2022-10-03T19:08:21.358Z,2.28
2022-10-03T19:10:23.080Z,1.45
2022-10-03T19:12:07.669Z,0.95
2022-10-03T19:13:53.151Z,1.27
2022-10-03T19:15:44.411Z,1.35
2022-10-03T19:17:33.231Z,0.93
2022-10-03T19:19:12.451Z,1.27
2022-10-03T19:20:48.467Z,0.65
2022-10-03T19:22:28.495Z,1.02
2022-10-03T19:24:11.879Z,1.00
2022-10-03T19:25:49.624Z,1.10
2022-10-03T19:27:26.698Z,0.85
2022-10-03T19:29:04.674Z,0.80
2022-10-03T19:30:43.069Z,0.80
2022-10-03T19:32:23.626Z,1.02
2022-10-03T19:34:01.382Z,0.90
2022-10-03T19:35:40.461Z,0.73
2022-10-03T19:37:18.495Z,0.70
2022-10-03T19:38:55.013Z,0.85
2022-10-03T19:40:54.286Z,0.80
2022-10-03T19:42:39.225Z,0.80
2022-10-03T19:44:18.445Z,0.95
2022-10-03T19:46:03.082Z,0.70
2022-10-03T19:47:40.733Z,0.70
2022-10-03T19:49:26.291Z,0.77
2022-10-03T19:51:10.402Z,0.90
2022-10-03T19:52:43.834Z,0.98
2022-10-03T19:54:31.610Z,1.00
2022-10-03T19:56:05.871Z,0.90
2022-10-03T19:57:45.319Z,1.55
2022-10-03T19:59:19.668Z,0.70
2022-10-03T20:00:55.997Z,0.82
2022-10-03T20:02:30.506Z,0.77
2022-10-03T20:04:03.729Z,0.90
2022-10-03T20:05:44.470Z,0.90
2022-10-03T20:07:20.844Z,0.60
2022-10-03T20:08:57.376Z,0.60
2022-10-03T20:10:51.810Z,0.60
2022-10-03T20:12:29.414Z,0.85
2022-10-03T20:14:03.568Z,0.93
2022-10-03T20:15:44.055Z,0.60
2022-10-03T20:17:22.658Z,0.60
2022-10-03T20:19:05.222Z,0.90
2022-10-03T20:20:38.922Z,0.65
2022-10-03T20:22:15.141Z,0.80
2022-10-03T20:23:49.467Z,0.70
2022-10-03T20:25:31.601Z,0.80
2022-10-03T20:27:19.742Z,0.50
2022-10-03T20:29:06.746Z,0.60
2022-10-03T20:30:46.028Z,0.60
2022-10-03T20:32:21.492Z,0.80
2022-10-03T20:33:56.104Z,0.50
2022-10-03T20:35:35.838Z,0.70
2022-10-03T20:37:27.684Z,1.05
2022-10-03T20:39:13.144Z,0.90
2022-10-03T20:40:52.048Z,1.20
2022-10-03T20:42:31.584Z,0.70
2022-10-03T20:44:13.815Z,0.77
2022-10-03T20:46:00.206Z,0.60
2022-10-03T20:47:56.165Z,1.00
2022-10-03T20:49:33.208Z,0.68
2022-10-03T20:51:06.668Z,1.13
2022-10-03T20:52:40.117Z,0.95
2022-10-03T20:54:19.646Z,0.80
2022-10-03T20:55:57.468Z,0.70
2022-10-03T20:57:34.320Z,0.70
2022-10-03T20:59:11.735Z,1.10
2022-10-03T21:00:49.556Z,0.40
2022-10-03T21:02:31.485Z,1.00
2022-10-03T21:04:16.130Z,0.70
2022-10-03T21:05:53.036Z,0.70
2022-10-03T21:07:33.975Z,1.45
2022-10-03T21:09:07.995Z,0.73
2022-10-03T21:10:45.302Z,0.80
2022-10-03T21:12:21.476Z,0.60
2022-10-03T21:13:58.929Z,0.60
2022-10-03T21:15:47.677Z,0.70
2022-10-03T21:17:21.940Z,0.70
2022-10-03T21:19:00.539Z,0.90
2022-10-03T21:20:38.469Z,0.70
2022-10-03T21:22:18.526Z,0.77
2022-10-03T21:23:58.997Z,0.98
2022-10-03T21:25:33.483Z,0.93
2022-10-03T21:27:08.856Z,0.90
2022-10-03T21:28:42.175Z,1.05
2022-10-03T21:30:18.992Z,0.80
2022-10-03T21:32:11.600Z,0.80
2022-10-03T21:33:53.434Z,0.80
2022-10-03T21:35:30.582Z,1.17
2022-10-03T21:37:14.188Z,0.98
2022-10-03T21:38:51.476Z,0.65
2022-10-03T21:40:39.106Z,0.65
2022-10-03T21:42:23.011Z,0.80
2022-10-03T21:43:59.473Z,0.85
2022-10-03T21:45:42.759Z,0.80
2022-10-03T21:47:26.759Z,0.60
2022-10-03T21:49:15.564Z,1.10
2022-10-03T21:50:55.080Z,0.80
2022-10-03T21:52:51.552Z,0.70
2022-10-03T21:54:37.143Z,0.80
2022-10-03T21:56:32.196Z,0.70
2022-10-03T21:58:19.857Z,0.90
2022-10-03T22:00:10.985Z,0.65
2022-10-03T22:01:50.791Z,0.95
2022-10-03T22:03:27.903Z,0.75
2022-10-03T22:05:09.018Z,1.00
2022-10-03T22:06:50.077Z,1.38
2022-10-03T22:08:27.243Z,1.02
2022-10-03T22:10:00.485Z,0.63
2022-10-03T22:11:43.311Z,0.98
2022-10-03T22:13:20.250Z,0.82
2022-10-03T22:15:00.148Z,1.20
2022-10-03T22:16:41.320Z,1.10
2022-10-03T22:18:17.843Z,0.70
2022-10-03T22:19:54.048Z,0.80
2022-10-03T22:21:30.512Z,0.60
2022-10-03T22:23:22.568Z,0.80
2022-10-03T22:25:09.364Z,0.98
2022-10-03T22:26:51.223Z,0.90
2022-10-03T22:28:39.294Z,1.00
2022-10-03T22:30:16.355Z,0.80
2022-10-03T22:31:56.915Z,0.73
2022-10-03T22:33:43.112Z,0.88
2022-10-03T22:35:33.272Z,0.50
2022-10-03T22:37:07.039Z,0.80
2022-10-03T22:38:41.018Z,0.65
2022-10-03T22:40:15.763Z,0.75
2022-10-03T22:41:53.503Z,0.88
2022-10-03T22:43:29.189Z,0.75
2022-10-03T22:45:04.580Z,0.60
2022-10-03T22:46:40.877Z,0.57
2022-10-03T22:48:18.710Z,1.40
2022-10-03T22:49:59.231Z,0.60
2022-10-03T22:51:33.986Z,0.93
2022-10-03T22:53:09.403Z,0.80
2022-10-03T22:54:44.869Z,0.70
2022-10-03T22:56:42.454Z,0.60
2022-10-03T22:58:16.599Z,0.60
2022-10-03T22:59:55.244Z,0.57
2022-10-03T23:01:29.444Z,0.88
2022-10-03T23:03:08.376Z,0.68
2022-10-03T23:04:49.123Z,0.60
2022-10-03T23:06:41.193Z,0.82
2022-10-03T23:08:24.715Z,0.80
2022-10-03T23:10:08.628Z,0.80
2022-10-03T23:11:47.046Z,0.63
2022-10-03T23:13:36.730Z,0.80
2022-10-03T23:15:15.616Z,0.65
2022-10-03T23:16:55.465Z,1.00
2022-10-03T23:18:45.324Z,0.88
2022-10-03T23:20:29.891Z,0.60
2022-10-03T23:22:03.510Z,1.02
2022-10-03T23:23:49.721Z,0.70
2022-10-03T23:25:26.690Z,1.17
2022-10-03T23:27:38.117Z,0.70
2022-10-03T23:29:14.211Z,0.80
2022-10-03T23:30:48.936Z,0.80
2022-10-03T23:32:55.362Z,0.90
2022-10-03T23:34:49.806Z,0.63
2022-10-03T23:36:25.723Z,0.70
2022-10-03T23:37:59.473Z,0.80
2022-10-03T23:39:34.972Z,1.17
2022-10-03T23:41:13.960Z,0.60
2022-10-03T23:43:01.340Z,0.75
2022-10-03T23:44:51.114Z,0.60
2022-10-03T23:46:27.076Z,1.30
2022-10-03T23:48:04.714Z,0.40
2022-10-03T23:49:39.804Z,0.63
2022-10-03T23:51:15.703Z,0.90
2022-10-03T23:52:53.776Z,0.90
2022-10-03T23:54:29.251Z,0.90
2022-10-03T23:56:05.267Z,0.75
2022-10-03T23:57:42.902Z,0.70
2022-10-03T23:59:25.723Z,0.90
